createdAt,value
2019-02-21T00:00:07.473Z,46.70
2019-02-21T00:02:36.696Z,46.70
2019-02-21T00:05:06.005Z,46.80
2019-02-21T00:07:35.204Z,46.50
2019-02-21T00:10:04.478Z,46.50
2019-02-21T00:12:33.623Z,46.40
2019-02-21T00:15:02.845Z,46.40
2019-02-21T00:17:31.986Z,46.40
2019-02-21T00:20:01.220Z,46.40
2019-02-21T00:22:30.408Z,46.40
2019-02-21T00:24:59.609Z,46.40
2019-02-21T00:27:28.813Z,46.40
2019-02-21T00:29:57.967Z,46.40
2019-02-21T00:32:27.166Z,46.40
2019-02-21T00:34:56.391Z,46.50
2019-02-21T00:37:25.601Z,46.60
2019-02-21T00:39:54.800Z,46.70
2019-02-21T00:42:24.018Z,46.80
2019-02-21T00:44:53.179Z,46.80
2019-02-21T00:47:22.417Z,46.70
2019-02-21T00:49:51.602Z,46.70
2019-02-21T00:52:21.166Z,46.70
2019-02-21T00:54:50.364Z,46.70
2019-02-21T00:57:19.540Z,46.70
2019-02-21T00:59:50.826Z,46.70
2019-02-21T01:02:19.609Z,46.80
2019-02-21T01:04:48.794Z,46.80
2019-02-21T01:07:18.014Z,46.90
2019-02-21T01:09:47.186Z,46.90
2019-02-21T01:12:16.585Z,47.00
2019-02-21T01:14:46.202Z,46.90
2019-02-21T01:17:15.382Z,46.90
2019-02-21T01:19:44.592Z,47.00
2019-02-21T01:22:13.834Z,47.00
2019-02-21T01:24:43.017Z,47.10
2019-02-21T01:27:12.215Z,47.00
2019-02-21T01:29:41.420Z,47.00
2019-02-21T01:32:10.595Z,47.00
2019-02-21T01:34:39.820Z,46.90
2019-02-21T01:37:09.338Z,47.00
2019-02-21T01:39:38.560Z,46.90
2019-02-21T01:42:07.742Z,46.90
2019-02-21T01:44:36.909Z,46.90
2019-02-21T01:47:06.129Z,46.90
2019-02-21T01:49:35.334Z,46.90
2019-02-21T01:52:04.543Z,46.90
2019-02-21T01:54:33.766Z,46.90
2019-02-21T01:57:02.960Z,46.90
2019-02-21T01:59:32.170Z,46.90
2019-02-21T02:02:01.389Z,46.90
2019-02-21T02:04:30.546Z,46.90
2019-02-21T02:07:00.291Z,47.00
2019-02-21T02:09:29.437Z,46.90
2019-02-21T02:11:58.631Z,46.90
2019-02-21T02:14:27.991Z,46.90
2019-02-21T02:16:57.160Z,46.90
2019-02-21T02:19:26.382Z,46.90
2019-02-21T02:21:55.566Z,46.90
2019-02-21T02:24:24.753Z,47.00
2019-02-21T02:26:53.983Z,46.90
2019-02-21T02:29:23.142Z,46.90
2019-02-21T02:31:52.349Z,47.70
2019-02-21T02:34:21.617Z,46.90
2019-02-21T02:36:50.789Z,46.90
2019-02-21T02:39:19.921Z,47.00
2019-02-21T02:41:49.137Z,46.90
2019-02-21T02:44:18.372Z,46.90
2019-02-21T02:46:47.590Z,47.00
2019-02-21T02:49:16.802Z,47.00
2019-02-21T02:51:46.033Z,47.00
2019-02-21T02:54:15.223Z,47.10
2019-02-21T02:56:44.381Z,46.90
2019-02-21T02:59:13.594Z,46.90
2019-02-21T03:01:42.793Z,46.90
2019-02-21T03:04:11.955Z,46.90
2019-02-21T03:06:41.204Z,46.90
2019-02-21T03:09:12.644Z,47.10
2019-02-21T03:11:41.871Z,46.90
2019-02-21T03:14:11.102Z,47.50
2019-02-21T03:16:40.326Z,46.90
2019-02-21T03:19:09.551Z,46.90
2019-02-21T03:21:38.742Z,46.90
2019-02-21T03:24:07.923Z,46.90
2019-02-21T03:26:37.140Z,46.90
2019-02-21T03:29:06.306Z,46.90
2019-02-21T03:31:52.772Z,46.90
2019-02-21T03:34:06.372Z,47.00
2019-02-21T03:36:35.567Z,46.90
2019-02-21T03:39:05.487Z,46.90
2019-02-21T03:41:34.710Z,47.00
2019-02-21T03:44:03.859Z,46.90
2019-02-21T03:46:33.085Z,46.90
2019-02-21T03:49:02.276Z,46.90
2019-02-21T03:51:31.471Z,47.00
2019-02-21T03:54:00.677Z,47.00
2019-02-21T03:56:29.855Z,46.90
2019-02-21T03:58:59.069Z,47.00
2019-02-21T04:01:28.269Z,46.90
2019-02-21T04:03:57.455Z,46.90
2019-02-21T04:06:26.656Z,46.90
2019-02-21T04:08:55.844Z,46.90
2019-02-21T04:11:25.066Z,46.90
2019-02-21T04:13:54.294Z,46.90
2019-02-21T04:16:23.462Z,46.90
2019-02-21T04:18:52.682Z,46.90
2019-02-21T04:21:21.878Z,46.90
2019-02-21T04:23:51.382Z,46.80
2019-02-21T04:26:20.581Z,46.90
2019-02-21T04:28:49.750Z,46.90
2019-02-21T04:31:19.036Z,46.80
2019-02-21T04:33:48.237Z,46.90
2019-02-21T04:36:17.395Z,46.90
2019-02-21T04:38:46.734Z,46.80
2019-02-21T04:41:15.990Z,46.70
2019-02-21T04:43:45.146Z,46.70
2019-02-21T04:46:14.358Z,46.70
2019-02-21T04:48:43.542Z,46.80
2019-02-21T04:51:12.765Z,46.70
2019-02-21T04:53:41.998Z,46.80
2019-02-21T04:56:11.206Z,46.70
2019-02-21T04:59:00.155Z,46.80
2019-02-21T05:01:29.372Z,46.40
2019-02-21T05:03:58.530Z,46.60
2019-02-21T05:06:27.737Z,46.70
2019-02-21T05:08:57.144Z,46.50
2019-02-21T05:11:26.951Z,46.40
2019-02-21T05:13:56.184Z,46.80
2019-02-21T05:16:25.413Z,46.80
2019-02-21T05:18:54.990Z,46.70
2019-02-21T05:21:24.259Z,46.60
2019-02-21T05:23:53.472Z,46.80
2019-02-21T05:26:28.597Z,46.80
2019-02-21T05:28:58.183Z,46.90
2019-02-21T05:31:45.558Z,46.90
2019-02-21T05:34:37.173Z,47.40
2019-02-21T05:37:17.038Z,53.00
2019-02-21T05:39:54.463Z,55.50
2019-02-21T05:42:39.879Z,55.30
2019-02-21T05:45:23.864Z,55.00
2019-02-21T05:48:12.037Z,54.80
2019-02-21T05:50:49.366Z,54.40
2019-02-21T05:53:25.382Z,54.40
2019-02-21T05:56:12.192Z,54.10
2019-02-21T05:58:59.208Z,54.10
2019-02-21T06:01:40.517Z,53.80
2019-02-21T06:04:31.778Z,53.60
2019-02-21T06:07:28.822Z,53.60
2019-02-21T06:10:23.417Z,53.40
2019-02-21T06:13:11.546Z,53.30
2019-02-21T06:16:04.661Z,52.70
2019-02-21T06:18:56.935Z,50.90
2019-02-21T06:21:51.079Z,50.70
2019-02-21T06:24:29.285Z,51.10
2019-02-21T06:27:06.206Z,51.20
2019-02-21T06:29:41.500Z,50.40
2019-02-21T06:32:14.183Z,50.10
2019-02-21T06:34:41.568Z,50.00
2019-02-21T06:37:12.725Z,50.00
2019-02-21T06:39:41.873Z,49.50
2019-02-21T06:42:11.351Z,49.50
2019-02-21T06:44:40.543Z,49.10
2019-02-21T06:47:09.761Z,49.10
2019-02-21T06:49:38.941Z,49.10
2019-02-21T06:52:08.140Z,49.20
2019-02-21T06:54:37.350Z,49.40
2019-02-21T06:57:06.566Z,49.50
2019-02-21T06:59:43.237Z,49.90
2019-02-21T07:02:06.626Z,50.00
2019-02-21T07:04:35.867Z,50.70
2019-02-21T07:07:05.083Z,50.70
2019-02-21T07:09:34.293Z,50.60
2019-02-21T07:12:03.478Z,50.20
2019-02-21T07:14:34.412Z,49.90
2019-02-21T07:17:03.856Z,49.60
2019-02-21T07:19:32.994Z,49.30
2019-02-21T07:22:02.225Z,49.10
2019-02-21T07:24:31.507Z,48.90
2019-02-21T07:27:00.687Z,48.80
2019-02-21T07:29:29.933Z,48.60
2019-02-21T07:31:59.115Z,48.70
2019-02-21T07:34:30.308Z,48.50
2019-02-21T07:36:59.173Z,48.50
2019-02-21T07:39:35.520Z,48.40
2019-02-21T07:41:59.231Z,48.40
2019-02-21T07:44:28.399Z,48.30
2019-02-21T07:46:57.590Z,48.40
2019-02-21T07:49:26.834Z,48.60
2019-02-21T07:51:56.006Z,48.60
2019-02-21T07:54:25.246Z,48.70
2019-02-21T07:56:54.442Z,48.80
2019-02-21T07:59:23.883Z,48.90
2019-02-21T08:01:53.114Z,49.60
2019-02-21T08:04:22.306Z,49.00
2019-02-21T08:06:51.479Z,49.10
2019-02-21T08:09:20.721Z,49.20
2019-02-21T08:11:50.174Z,49.00
2019-02-21T08:14:19.421Z,48.60
2019-02-21T08:16:48.605Z,48.60
2019-02-21T08:19:17.742Z,49.00
2019-02-21T08:21:47.073Z,48.50
2019-02-21T08:24:16.574Z,48.50
2019-02-21T08:26:45.759Z,48.70
2019-02-21T08:29:14.998Z,49.00
2019-02-21T08:31:44.170Z,49.00
2019-02-21T08:34:38.379Z,49.20
2019-02-21T08:37:08.797Z,49.50
2019-02-21T08:39:38.146Z,49.50
2019-02-21T08:42:07.412Z,49.40
2019-02-21T08:44:36.586Z,49.20
2019-02-21T08:47:05.801Z,49.00
2019-02-21T08:49:35.004Z,48.80
2019-02-21T08:52:04.165Z,48.70
2019-02-21T08:54:33.385Z,48.50
2019-02-21T08:57:02.610Z,48.30
2019-02-21T08:59:31.819Z,48.10
2019-02-21T09:02:01.043Z,48.00
2019-02-21T09:04:30.490Z,47.90
2019-02-21T09:06:59.679Z,47.80
2019-02-21T09:09:28.891Z,47.80
2019-02-21T09:11:58.070Z,47.70
2019-02-21T09:14:27.882Z,47.70
2019-02-21T09:16:57.122Z,47.70
2019-02-21T09:19:26.294Z,47.70
2019-02-21T09:21:55.525Z,47.80
2019-02-21T09:24:37.458Z,47.90
2019-02-21T09:26:57.084Z,47.90
2019-02-21T09:29:26.393Z,48.10
2019-02-21T09:31:55.590Z,48.30
2019-02-21T09:34:24.798Z,48.20
2019-02-21T09:36:54.001Z,48.20
2019-02-21T09:39:23.194Z,48.30
2019-02-21T09:41:52.352Z,48.50
2019-02-21T09:44:21.527Z,48.30
2019-02-21T09:46:50.727Z,48.70
2019-02-21T09:49:19.980Z,47.80
2019-02-21T09:51:49.247Z,47.50
2019-02-21T09:54:19.187Z,47.50
2019-02-21T09:56:52.695Z,47.30
2019-02-21T09:59:19.509Z,47.20
2019-02-21T10:01:48.718Z,47.10
2019-02-21T10:04:17.990Z,47.00
2019-02-21T10:06:47.191Z,46.90
2019-02-21T10:09:16.423Z,46.80
2019-02-21T10:11:45.583Z,46.80
2019-02-21T10:14:14.806Z,46.60
2019-02-21T10:16:43.996Z,46.50
2019-02-21T10:19:13.234Z,46.30
2019-02-21T10:21:42.405Z,46.20
2019-02-21T10:24:11.553Z,46.30
2019-02-21T10:26:40.749Z,46.10
2019-02-21T10:29:09.944Z,46.10
2019-02-21T10:31:39.135Z,46.10
2019-02-21T10:34:09.588Z,46.00
2019-02-21T10:36:39.094Z,45.80
2019-02-21T10:39:08.286Z,45.70
2019-02-21T10:41:37.819Z,46.00
2019-02-21T10:44:07.382Z,46.00
2019-02-21T10:46:36.566Z,46.30
2019-02-21T10:49:05.754Z,46.50
2019-02-21T10:51:34.926Z,46.10
2019-02-21T10:54:04.134Z,46.10
2019-02-21T10:56:33.585Z,46.00
2019-02-21T10:59:02.797Z,46.20
2019-02-21T11:01:32.878Z,46.60
2019-02-21T11:04:02.121Z,46.70
2019-02-21T11:06:31.353Z,47.10
2019-02-21T11:09:00.519Z,47.60
2019-02-21T11:11:29.721Z,47.70
2019-02-21T11:13:58.906Z,48.00
2019-02-21T11:16:28.091Z,48.30
2019-02-21T11:18:57.337Z,48.10
2019-02-21T11:21:26.514Z,48.20
2019-02-21T11:24:14.911Z,48.10
2019-02-21T11:26:44.118Z,48.10
2019-02-21T11:29:13.294Z,48.00
2019-02-21T11:31:42.508Z,47.90
2019-02-21T11:34:11.756Z,47.80
2019-02-21T11:36:40.874Z,47.70
2019-02-21T11:39:10.100Z,47.40
2019-02-21T11:41:39.278Z,47.20
2019-02-21T11:44:08.494Z,46.90
2019-02-21T11:46:37.719Z,46.90
2019-02-21T11:49:06.889Z,46.70
2019-02-21T11:51:36.087Z,46.60
2019-02-21T11:54:05.293Z,46.50
2019-02-21T11:56:34.507Z,46.60
2019-02-21T11:59:03.720Z,46.40
2019-02-21T12:01:32.918Z,46.40
2019-02-21T12:04:02.490Z,46.20
2019-02-21T12:06:31.676Z,46.20
2019-02-21T12:09:00.858Z,46.20
2019-02-21T12:11:30.065Z,46.30
2019-02-21T12:13:59.229Z,46.60
2019-02-21T12:16:28.436Z,46.40
2019-02-21T12:18:57.643Z,46.40
2019-02-21T12:21:26.873Z,46.40
2019-02-21T12:23:56.079Z,46.40
2019-02-21T12:26:25.297Z,47.00
2019-02-21T12:28:54.495Z,45.70
2019-02-21T12:31:23.673Z,46.20
2019-02-21T12:33:57.831Z,46.10
2019-02-21T12:36:27.023Z,45.80
2019-02-21T12:38:56.245Z,45.70
2019-02-21T12:41:25.413Z,45.50
2019-02-21T12:43:54.651Z,45.30
2019-02-21T12:46:23.835Z,45.30
2019-02-21T12:48:53.039Z,45.20
2019-02-21T12:51:22.266Z,45.10
2019-02-21T12:53:51.426Z,45.00
2019-02-21T12:56:20.646Z,45.00
2019-02-21T12:58:49.894Z,44.90
2019-02-21T13:01:19.091Z,44.80
2019-02-21T13:03:48.287Z,44.80
2019-02-21T13:06:17.527Z,44.80
2019-02-21T13:08:46.699Z,44.60
2019-02-21T13:11:15.914Z,44.80
2019-02-21T13:13:45.103Z,44.70
2019-02-21T13:16:14.275Z,44.60
2019-02-21T13:18:43.497Z,44.70
2019-02-21T13:21:13.034Z,44.50
2019-02-21T13:23:42.996Z,44.60
2019-02-21T13:26:12.365Z,44.60
2019-02-21T13:28:41.554Z,44.50
2019-02-21T13:31:10.873Z,44.60
2019-02-21T13:33:40.042Z,44.70
2019-02-21T13:36:09.630Z,44.60
2019-02-21T13:38:38.857Z,44.50
2019-02-21T13:41:08.034Z,44.50
2019-02-21T13:43:37.217Z,44.40
2019-02-21T13:46:06.438Z,44.60
2019-02-21T13:48:35.767Z,44.60
2019-02-21T13:51:04.922Z,44.80
2019-02-21T13:53:34.235Z,45.00
2019-02-21T13:56:03.337Z,45.00
2019-02-21T13:58:32.528Z,45.00
2019-02-21T14:01:01.714Z,44.90
2019-02-21T14:03:30.913Z,44.60
2019-02-21T14:06:03.525Z,44.60
2019-02-21T14:08:30.940Z,44.60
2019-02-21T14:11:00.346Z,44.80
2019-02-21T14:13:29.574Z,44.80
2019-02-21T14:15:58.802Z,44.70
2019-02-21T14:18:28.334Z,45.40
2019-02-21T14:20:57.530Z,44.80
2019-02-21T14:23:28.080Z,44.80
2019-02-21T14:25:57.681Z,44.60
2019-02-21T14:28:27.618Z,44.50
2019-02-21T14:30:56.829Z,44.40
2019-02-21T14:33:26.082Z,44.30
2019-02-21T14:35:55.274Z,44.10
2019-02-21T14:38:27.969Z,44.10
2019-02-21T14:40:55.622Z,44.70
2019-02-21T14:43:24.826Z,44.00
2019-02-21T14:45:54.014Z,43.90
2019-02-21T14:48:23.473Z,44.60
2019-02-21T14:50:52.675Z,43.80
2019-02-21T14:53:22.218Z,43.90
2019-02-21T14:55:51.385Z,43.90
2019-02-21T14:58:20.569Z,43.80
2019-02-21T15:00:49.770Z,43.80
2019-02-21T15:03:21.943Z,43.80
2019-02-21T15:05:49.853Z,43.70
2019-02-21T15:08:22.096Z,43.80
2019-02-21T15:10:52.674Z,43.70
2019-02-21T15:13:22.092Z,43.70
2019-02-21T15:15:51.287Z,43.70
2019-02-21T15:18:20.509Z,43.70
2019-02-21T15:20:49.695Z,43.80
2019-02-21T15:23:18.890Z,43.80
2019-02-21T15:25:48.082Z,43.70
2019-02-21T15:28:17.278Z,43.70
2019-02-21T15:30:46.523Z,43.70
2019-02-21T15:33:15.724Z,43.80
2019-02-21T15:35:44.954Z,43.80
2019-02-21T15:38:20.017Z,44.00
2019-02-21T15:40:44.990Z,44.00
2019-02-21T15:43:14.198Z,44.10
2019-02-21T15:45:43.713Z,44.00
2019-02-21T15:48:12.909Z,44.10
2019-02-21T15:50:42.093Z,43.90
2019-02-21T15:53:11.306Z,44.00
2019-02-21T15:55:40.487Z,45.30
2019-02-21T15:58:09.706Z,45.00
2019-02-21T16:00:38.916Z,45.10
2019-02-21T16:03:08.538Z,45.30
2019-02-21T16:05:37.753Z,45.40
2019-02-21T16:08:06.927Z,45.30
2019-02-21T16:10:36.433Z,46.20
2019-02-21T16:13:05.858Z,46.40
2019-02-21T16:15:35.534Z,46.70
2019-02-21T16:18:05.050Z,47.30
2019-02-21T16:20:34.715Z,47.60
2019-02-21T16:23:04.266Z,47.60
2019-02-21T16:25:33.463Z,47.60
2019-02-21T16:28:02.977Z,47.50
2019-02-21T16:30:32.129Z,47.50
2019-02-21T16:33:01.354Z,47.30
2019-02-21T16:35:30.572Z,47.90
2019-02-21T16:37:59.772Z,47.20
2019-02-21T16:40:28.948Z,47.00
2019-02-21T16:43:00.930Z,47.00
2019-02-21T16:45:42.452Z,46.90
2019-02-21T16:48:01.014Z,46.80
2019-02-21T16:50:30.363Z,46.80
2019-02-21T16:52:59.905Z,46.70
2019-02-21T16:55:29.117Z,46.90
2019-02-21T16:57:58.308Z,47.00
2019-02-21T17:00:42.198Z,46.80
2019-02-21T17:02:58.435Z,46.80
2019-02-21T17:05:27.761Z,46.80
2019-02-21T17:07:56.939Z,46.60
2019-02-21T17:10:26.158Z,46.60
2019-02-21T17:12:55.342Z,46.60
2019-02-21T17:15:24.506Z,46.60
2019-02-21T17:17:53.732Z,46.50
2019-02-21T17:20:22.954Z,46.10
2019-02-21T17:22:52.170Z,46.50
2019-02-21T17:25:21.378Z,46.40
2019-02-21T17:27:50.681Z,46.30
2019-02-21T17:30:19.898Z,46.20
2019-02-21T17:32:49.125Z,46.50
2019-02-21T17:35:18.352Z,46.50
2019-02-21T17:37:47.594Z,46.40
2019-02-21T17:40:18.403Z,46.40
2019-02-21T17:42:47.966Z,46.10
2019-02-21T17:45:17.188Z,46.30
2019-02-21T17:47:46.794Z,46.30
2019-02-21T17:50:16.157Z,46.40
2019-02-21T17:52:45.378Z,46.20
2019-02-21T17:55:14.605Z,46.20
2019-02-21T17:57:43.794Z,46.40
2019-02-21T18:00:20.573Z,46.20
2019-02-21T18:02:49.783Z,46.20
2019-02-21T18:05:19.314Z,46.30
2019-02-21T18:07:48.509Z,46.20
2019-02-21T18:10:17.718Z,46.20
2019-02-21T18:12:46.913Z,46.30
2019-02-21T18:15:16.558Z,46.00
2019-02-21T18:17:45.747Z,46.20
2019-02-21T18:20:14.947Z,46.70
2019-02-21T18:22:44.146Z,45.90
2019-02-21T18:25:16.630Z,46.00
2019-02-21T18:27:45.860Z,46.30
2019-02-21T18:30:15.414Z,46.10
2019-02-21T18:32:44.629Z,46.20
2019-02-21T18:35:13.891Z,46.20
2019-02-21T18:37:47.562Z,45.60
2019-02-21T18:40:18.374Z,46.30
2019-02-21T18:42:46.044Z,45.90
2019-02-21T18:45:17.386Z,44.80
2019-02-21T18:47:47.185Z,44.60
2019-02-21T18:50:16.424Z,44.50
2019-02-21T18:52:46.002Z,44.40
2019-02-21T18:55:15.221Z,44.30
2019-02-21T18:57:44.414Z,44.30
2019-02-21T19:00:15.033Z,44.30
2019-02-21T19:02:44.250Z,44.20
2019-02-21T19:05:13.496Z,44.10
2019-02-21T19:07:42.669Z,44.10
2019-02-21T19:10:13.539Z,44.10
2019-02-21T19:12:43.794Z,45.20
2019-02-21T19:15:16.085Z,45.20
2019-02-21T19:17:45.450Z,44.70
2019-02-21T19:20:14.788Z,44.20
2019-02-21T19:22:44.085Z,44.20
2019-02-21T19:25:13.850Z,44.10
2019-02-21T19:27:43.502Z,44.10
2019-02-21T19:30:22.590Z,44.20
2019-02-21T19:32:53.601Z,44.30
2019-02-21T19:35:23.285Z,43.80
2019-02-21T19:37:52.565Z,43.80
2019-02-21T19:40:24.416Z,44.40
2019-02-21T19:42:55.814Z,44.40
2019-02-21T19:45:26.427Z,44.30
2019-02-21T19:47:55.714Z,44.40
2019-02-21T19:50:26.044Z,44.50
2019-02-21T19:52:56.516Z,44.50
2019-02-21T19:55:29.707Z,44.50
2019-02-21T19:57:58.727Z,44.50
2019-02-21T20:00:29.744Z,44.50
2019-02-21T20:02:59.039Z,44.50
2019-02-21T20:05:28.642Z,44.50
2019-02-21T20:08:08.198Z,44.60
2019-02-21T20:10:28.993Z,44.60
2019-02-21T20:13:01.173Z,44.70
2019-02-21T20:15:34.288Z,44.60
2019-02-21T20:18:03.481Z,44.70
2019-02-21T20:20:32.804Z,44.70
2019-02-21T20:23:02.054Z,44.70
2019-02-21T20:25:31.421Z,44.70
2019-02-21T20:28:02.297Z,44.70
2019-02-21T20:30:31.680Z,44.70
2019-02-21T20:33:00.947Z,44.80
2019-02-21T20:35:30.170Z,45.10
2019-02-21T20:38:00.288Z,45.00
2019-02-21T20:40:29.563Z,44.40
2019-02-21T20:42:58.783Z,44.90
2019-02-21T20:45:28.076Z,44.80
2019-02-21T20:47:57.306Z,44.90
2019-02-21T20:50:27.262Z,44.90
2019-02-21T20:52:57.199Z,44.70
2019-02-21T20:55:26.740Z,44.60
2019-02-21T20:57:56.723Z,44.60
2019-02-21T21:00:26.272Z,44.60
2019-02-21T21:02:55.482Z,45.20
2019-02-21T21:05:24.716Z,44.70
2019-02-21T21:07:54.390Z,44.70
2019-02-21T21:10:23.591Z,44.50
2019-02-21T21:12:52.813Z,44.80
2019-02-21T21:15:21.997Z,44.80
2019-02-21T21:17:51.315Z,44.90
2019-02-21T21:20:20.510Z,44.80
2019-02-21T21:22:49.730Z,44.90
2019-02-21T21:25:18.970Z,44.90
2019-02-21T21:27:48.171Z,44.80
2019-02-21T21:30:29.401Z,44.90
2019-02-21T21:32:58.613Z,45.00
2019-02-21T21:35:27.842Z,45.70
2019-02-21T21:37:57.063Z,45.70
2019-02-21T21:40:26.642Z,45.00
2019-02-21T21:42:55.847Z,45.00
2019-02-21T21:45:30.081Z,45.00
2019-02-21T21:47:59.309Z,45.00
2019-02-21T21:50:28.536Z,45.00
2019-02-21T21:52:59.753Z,45.10
2019-02-21T21:55:28.609Z,45.10
2019-02-21T21:57:57.762Z,45.00
2019-02-21T22:00:27.781Z,45.10
2019-02-21T22:02:56.965Z,45.20
2019-02-21T22:05:26.135Z,45.10
2019-02-21T22:07:55.329Z,45.00
2019-02-21T22:10:24.539Z,45.10
2019-02-21T22:12:54.101Z,45.20
2019-02-21T22:15:23.324Z,45.20
2019-02-21T22:17:52.623Z,45.20
2019-02-21T22:20:21.858Z,45.70
2019-02-21T22:22:51.062Z,45.70
2019-02-21T22:25:20.236Z,45.60
2019-02-21T22:27:49.493Z,45.70
2019-02-21T22:30:18.699Z,45.60
2019-02-21T22:32:47.907Z,45.70
2019-02-21T22:35:17.143Z,45.70
2019-02-21T22:37:46.717Z,45.70
2019-02-21T22:40:16.001Z,45.80
2019-02-21T22:42:45.210Z,45.70
2019-02-21T22:45:14.385Z,45.70
2019-02-21T22:47:43.921Z,45.80
2019-02-21T22:50:14.428Z,45.70
2019-02-21T22:52:43.644Z,45.80
2019-02-21T22:55:12.842Z,45.70
2019-02-21T22:57:42.062Z,45.70
2019-02-21T23:01:04.079Z,45.70
2019-02-21T23:03:52.730Z,45.70
2019-02-21T23:06:49.446Z,45.70
2019-02-21T23:09:27.635Z,45.70
2019-02-21T23:11:52.081Z,45.70
2019-02-21T23:14:21.290Z,45.70
2019-02-21T23:16:50.510Z,45.80
2019-02-21T23:19:19.717Z,45.70
2019-02-21T23:21:49.040Z,45.90
2019-02-21T23:24:18.176Z,45.80
2019-02-21T23:26:47.399Z,45.70
2019-02-21T23:29:23.403Z,45.60
2019-02-21T23:31:52.629Z,45.50
2019-02-21T23:34:37.514Z,45.60
2019-02-21T23:37:06.722Z,45.50
2019-02-21T23:39:38.631Z,45.50
2019-02-21T23:42:06.779Z,45.60
2019-02-21T23:44:35.996Z,45.60
2019-02-21T23:47:05.193Z,45.50
2019-02-21T23:49:34.404Z,45.60
2019-02-21T23:52:03.600Z,45.60
2019-02-21T23:54:32.799Z,45.60
2019-02-21T23:57:01.982Z,45.60
2019-02-21T23:59:31.206Z,45.60
